Relevés horaires Grono (Suisse)


Relevés horaires à Grono - Samedi 22 Sept. 2018
Heure UTC1 Température [°C] Vent [km/h] Hum. [%] Pres.4 [hPa] Visi. [Km] Nébu. [octa] Préc.5 [mm] Cond.
2m. Res. Ros. Dir.2 Vit. Moy. Raf.3
23:00 18.4 18.4 16.5 N 1.9 -- -- 89 1018.9 -- -- -- --
22:00 18.9 18.9 16.5 NE 1.9 -- -- 86 1018.6 -- -- -- --
21:00 18.6 18.6 16.4 NNO 1.9 -- 11.1 87 1018.4(1.3/3h) -- -- -- --
20:00 19.4 19.4 16.2 N 5.6 -- -- 82 1018.1 -- -- -- --
19:00 19.7 19.7 17.0 N 3.7 -- -- 84 1017.5 -- -- -- --
18:00 19.8 19.8 16.6 N 1.9 -- 25.9 82 1016.9(1.8/3h) -- -- 0/12h
--
17:00 22.4 22.4 16.6 N 3.7 -- -- 70 1015.7 -- -- -- --
16:00 25.4 25.4 14.8 SSE 7.4 -- -- 52 1014.6 -- -- -- --
15:00 26.2 26.2 13.5 SSE 13.0 -- 24.1 45 1014.2(-0.4/3h) -- -- -- --
14:00 27.0 27.0 12.6 SSE 14.8 -- -- 41 1014 -- -- -- --
13:00 27.0 27.0 9.8 S 7.4 -- -- 34 1014.3 -- -- -- --
12:00 26.0 26.0 12.3 S 3.7 -- 11.1 43 1014.6(-1.6/3h) -- -- 0/6h
--
11:00 24.9 24.9 12.5 S 3.7 -- -- 46 1015.2 -- -- -- --
10:00 23.4 23.4 12.6 S 1.9 -- -- 51 1016 -- -- -- --
09:00 19.8 19.8 15.7 ENE 0.0 -- 11.1 77 1017.1(0.9/3h) -- -- -- --
08:00 18.0 18.0 15.9 N 5.6 -- -- 88 1017.2 -- -- -- --
07:00 16.5 16.5 15.3 NE 1.9 -- -- 93 1017.1 -- -- -- --
06:00 15.7 15.7 14.7 NNO 3.7 -- 14.8 94 1016.8(1.2/3h) -- -- 0/12h
0/24h
--
05:00 15.9 15.9 15.3 NNE 5.6 -- -- 96 1015.8 -- -- -- --
04:00 15.7 15.7 15.0 N 3.7 -- -- 96 1015.9 -- -- -- --
03:00 16.5 16.5 15.5 N 5.6 -- 14.8 94 1015.4(-0.3/3h) -- -- -- --
02:00 16.6 16.6 15.8 NNE 3.7 -- -- 95 1015.6 -- -- -- --
01:00 16.5 16.5 15.8 NNO 3.7 -- -- 96 1015.6 -- -- -- --
00:00 17.0 17.0 16.2 N 3.7 -- 7.4 95 1015.6(0.0/3h) -- -- 0/6h
--

1 Coordinated Universal Time. Actuellement il est 20:00 locale et 18:00 UTC.

2 Le vent souffle depuis la direction indiquée vers la direction oposée.

3 Les rafales max. sont disponible 40 min après l'heure du relevé.

4 Pour les stations d'altitude (plus de 600m) le géopotentiel du niveau le plus proche de la pression obligatoire est indiqué.

5 Les stations disposant d'un diffuseur peuvent indiquer "trace". Cela signifie que des précipitations ont touchés le sol mais que la quantité est inférieure à 0.1 mm.

Récapitulatif de la journée
Température [°C] Vent [km/h] Ensoleillement4 [h] Precipitations totale5 [mm] Pression [Hpa]
Min1 Max.2 Moy.3 Max. Min Max.
15.4 27.1 0 25.9 0 h 0 min 0 1014.0 1018.9

1 Température minimale relevée entre 18:00 UTC la veille et 18:00 UTC le jour donné.

2 Température maximale relevée entre 06:00 UTC le jour donné et 06:00 UTC le lendemain.

3 Vent moyen de la journée basé sur les relevés horaires.

4 Ensoleillement en heures relevé entre 06:00 UTC la veille et 06:00 UTC le jour donné.

5 Précipitations totales tombées entre 06:00 UTC la jour donné et 06:00 UTC le lendemain.

Graphiques horaires